METAR AND TAF INFORMATION

METAR FOR TNCB
ADDS - METARS form results

(2240 UTC 12 April 2021)
Data provider http://aviationweather.gov/metar/data/
 
METAR text: TNCB 122155Z 08016KT 9999 FEW012 28/24 Q1008
Conditions at: TNCB (BONAIRE/FLAMINGO, AN) observed 2155 UTC 12 April 2021
Temperature: 28.0°C (82°F)
Dewpoint: 24.0°C (75°F) [RH = 79%]
Pressure (altimeter): 29.76 inches Hg (1008.0 mb)
Winds: from the E (80 degrees) at 18 MPH (16 knots; 8.2 m/s)
Visibility: 6 or more miles (10+ km)
Ceiling: at least 12,000 feet AGL
Clouds: few clouds at 1200 feet AGL
Weather: no significant weather observed at this time

Forecast for: TNCB (BONAIRE/FLAMINGO, AN)
Text: TAF TNCB 121659Z 1218/1324 09016KT 9999 SCT018
Forecast period: 1800 UTC 12 April 2021 to 0000 UTC 14 April 2021
Forecast type: FROM: standard forecast or significant change
Winds: from the E (90 degrees) at 18 MPH (16 knots; 8.2 m/s)
Visibility: 6 or more miles (10+ km)
Ceiling: at least 12,000 feet AGL
Clouds: scattered clouds at 1800 feet AGL
Weather: no significant weather forecast for this period

 

AIRPORT MAP

 

RUNWAY INFORMATION

Runway 10 Runway length 9449 ft Runway width 148 ft
Runway elevation 14 ft Runway displaced threshold 0 ft Runway heading 92
Runway 28 Runway length 9449 ft Runway width 148 ft
Runway elevation 20 ft Runway displaced threshold 0 ft Runway heading 272

 

AIRPORT FREQUENCIES

Type TWR Name TWR Frequency 118.7 MHZ

 

AIRPORT NEAR NAVIGATION AIDS

Type NDB Name Bonaire Frequency 321 KHZ